Time;durP1;ratioP1;P1;durP2;ratioP2;P2;SDS_P1;SDS_P2;PMS_P1;PMS_P2;Temp;Humidity;BMP_temperature;BMP_pressure;BME280_temperature;BME280_humidity;BME280_pressure;Samples;Min_cycle;Max_cycle;Signal;HPM_P1;HPM_P2
2021/03/04 00:00:32;;;;;;;82.10;55.47;;;9.40;99.90;;;;;;5074451;28;20453;-48
2021/03/04 00:02:59;;;;;;;76.70;52.23;;;9.10;99.90;;;;;;5074545;28;20437;-49
2021/03/04 00:05:25;;;;;;;79.83;55.33;;;9.30;99.90;;;;;;5056239;28;20446;-50
2021/03/04 00:07:52;;;;;;;91.13;57.93;;;9.30;99.90;;;;;;5074353;28;20426;-48
2021/03/04 00:10:20;;;;;;;80.23;56.70;;;9.20;99.90;;;;;;5074490;28;20409;-48
2021/03/04 00:12:49;;;;;;;79.87;58.50;;;9.10;99.90;;;;;;5074615;28;20796;-47
2021/03/04 00:15:18;;;;;;;72.40;55.70;;;9.10;99.90;;;;;;5074214;28;20438;-48
2021/03/04 00:17:46;;;;;;;89.40;58.07;;;9.00;99.90;;;;;;5074357;28;20404;-47
2021/03/04 00:20:15;;;;;;;95.00;59.20;;;9.00;99.90;;;;;;5074271;28;20438;-48
2021/03/04 00:22:41;;;;;;;87.20;61.73;;;9.10;99.90;;;;;;5073936;28;20426;-49
2021/03/04 00:25:11;;;;;;;87.43;58.80;;;9.00;99.90;;;;;;5073826;28;20781;-47
2021/03/04 00:27:38;;;;;;;84.90;58.83;;;9.10;99.90;;;;;;5055852;28;20776;-49
2021/03/04 00:30:07;;;;;;;97.13;62.43;;;9.20;99.90;;;;;;5073922;28;20434;-49
2021/03/04 00:32:33;;;;;;;86.67;62.70;;;9.00;99.90;;;;;;5073097;28;20465;-48
2021/03/04 00:35:00;;;;;;;90.63;60.90;;;9.00;99.90;;;;;;5073600;28;20396;-50
2021/03/04 00:37:26;;;;;;;93.30;61.53;;;9.00;99.90;;;;;;5073614;28;20430;-49
2021/03/04 00:39:52;;;;;;;85.53;60.73;;;8.90;99.90;;;;;;5073544;28;20428;-47
2021/03/04 00:42:19;;;;;;;90.87;63.80;;;9.10;99.90;;;;;;5073516;28;20465;-48
2021/03/04 00:44:45;;;;;;;87.37;62.07;;;8.80;99.90;;;;;;5073513;28;20968;-49
2021/03/04 00:47:12;;;;;;;94.87;63.13;;;8.60;99.90;;;;;;5073722;28;20499;-50
2021/03/04 00:49:39;;;;;;;99.30;64.90;;;8.30;99.90;;;;;;5073486;28;20400;-50
2021/03/04 00:52:06;;;;;;;97.43;65.33;;;8.90;99.90;;;;;;5073207;28;20560;-50
2021/03/04 00:54:33;;;;;;;96.50;65.90;;;9.20;99.90;;;;;;5054811;28;20960;-50
2021/03/04 00:56:59;;;;;;;105.03;68.10;;;9.00;99.90;;;;;;5073310;28;20525;-50
2021/03/04 00:59:25;;;;;;;100.87;68.03;;;8.90;99.90;;;;;;5073182;28;20430;-50
2021/03/04 01:01:52;;;;;;;98.93;67.70;;;8.80;99.90;;;;;;5073078;28;20462;-48
2021/03/04 01:04:19;;;;;;;101.90;71.70;;;8.60;99.90;;;;;;5072917;28;20883;-49
2021/03/04 01:06:45;;;;;;;92.77;67.10;;;8.90;99.90;;;;;;5073162;28;20493;-50
2021/03/04 01:09:13;;;;;;;96.57;65.50;;;8.90;99.90;;;;;;5072946;28;20471;-48
2021/03/04 01:11:39;;;;;;;106.23;69.97;;;8.90;99.90;;;;;;5072878;28;20515;-49
2021/03/04 01:14:06;;;;;;;100.33;67.37;;;8.70;99.90;;;;;;5072504;28;20502;-49
2021/03/04 01:16:33;;;;;;;94.50;66.73;;;8.50;99.90;;;;;;5054397;28;20454;-49
2021/03/04 01:18:59;;;;;;;92.27;66.60;;;8.60;99.90;;;;;;5072980;28;20844;-50
2021/03/04 01:21:26;;;;;;;97.87;65.10;;;8.60;99.90;;;;;;5072901;28;20962;-49
2021/03/04 01:23:52;;;;;;;94.00;63.37;;;8.70;99.90;;;;;;5072700;28;20441;-50
2021/03/04 01:26:18;;;;;;;98.83;65.30;;;8.60;99.90;;;;;;5072837;28;20439;-50
2021/03/04 01:28:45;;;;;;;99.40;67.80;;;8.50;99.90;;;;;;5072671;28;20464;-50
2021/03/04 01:31:11;;;;;;;93.20;66.57;;;8.60;99.90;;;;;;5072510;28;20531;-50
2021/03/04 01:33:37;;;;;;;93.80;64.80;;;8.40;99.90;;;;;;5072390;28;20559;-50
2021/03/04 01:36:04;;;;;;;97.27;65.97;;;8.60;99.90;;;;;;5072791;28;20898;-50
2021/03/04 01:38:31;;;;;;;95.87;64.57;;;8.60;99.90;;;;;;5073005;28;20446;-50
2021/03/04 01:40:57;;;;;;;92.10;64.87;;;8.30;99.90;;;;;;5072636;28;20547;-50
2021/03/04 01:43:24;;;;;;;89.63;62.00;;;8.50;99.90;;;;;;5072439;28;20437;-50
2021/03/04 01:45:50;;;;;;;96.37;64.27;;;8.50;99.90;;;;;;5072616;28;20440;-50
2021/03/04 01:48:16;;;;;;;92.93;61.83;;;8.70;99.90;;;;;;5072428;28;20424;-50
2021/03/04 01:50:43;;;;;;;98.70;68.40;;;8.60;99.90;;;;;;5072361;28;20771;-49
2021/03/04 01:53:09;;;;;;;107.90;69.67;;;8.60;99.90;;;;;;5071857;28;20580;-50
2021/03/04 01:55:37;;;;;;;94.50;65.53;;;8.50;99.90;;;;;;5072640;28;20433;-49
2021/03/04 01:58:03;;;;;;;97.50;66.90;;;8.50;99.90;;;;;;5054139;28;20958;-49
2021/03/04 02:00:29;;;;;;;93.50;64.63;;;8.40;99.90;;;;;;5071610;28;20510;-48
2021/03/04 02:02:56;;;;;;;92.83;64.87;;;8.60;99.90;;;;;;5071269;28;20437;-48
2021/03/04 02:05:23;;;;;;;87.00;66.70;;;8.40;99.90;;;;;;5071425;28;20433;-47
2021/03/04 02:08:00;;;;;;;96.90;65.70;;;8.50;99.90;;;;;;5053604;28;20423;-48
2021/03/04 02:10:33;;;;;;;92.73;67.67;;;8.40;99.90;;;;;;5071484;28;20424;-47
2021/03/04 02:13:11;;;;;;;101.33;68.23;;;8.50;99.90;;;;;;5071048;28;20476;-47
2021/03/04 02:15:44;;;;;;;105.60;70.20;;;8.20;99.90;;;;;;5071393;28;20428;-47
2021/03/04 02:18:15;;;;;;;97.10;68.80;;;8.20;99.90;;;;;;5071318;28;20483;-48
2021/03/04 02:21:04;;;;;;;108.13;75.90;;;8.30;99.90;;;;;;5071402;28;20971;-47
2021/03/04 02:23:45;;;;;;;108.43;74.37;;;7.90;99.90;;;;;;5071063;28;20444;-47
2021/03/04 02:26:26;;;;;;;101.43;71.57;;;8.10;99.90;;;;;;5053387;28;20453;-48
2021/03/04 02:28:56;;;;;;;105.80;72.80;;;8.00;99.90;;;;;;5071276;28;20447;-48
2021/03/04 02:31:23;;;;;;;113.57;74.70;;;8.00;99.90;;;;;;5071321;28;20460;-47
2021/03/04 02:33:50;;;;;;;107.20;77.03;;;8.10;99.90;;;;;;5070816;28;20518;-48
2021/03/04 02:36:19;;;;;;;107.90;74.93;;;8.10;99.90;;;;;;5071268;28;20822;-48
2021/03/04 02:38:46;;;;;;;111.30;76.27;;;8.30;99.90;;;;;;5071340;28;20428;-47
2021/03/04 02:41:13;;;;;;;107.47;77.77;;;7.90;99.90;;;;;;5071063;28;20801;-48
2021/03/04 02:43:41;;;;;;;106.33;73.43;;;8.40;99.90;;;;;;5070924;28;20424;-47
2021/03/04 02:46:10;;;;;;;108.37;75.40;;;8.30;99.90;;;;;;5071432;28;20428;-47
2021/03/04 02:48:37;;;;;;;110.93;75.87;;;8.20;99.90;;;;;;5070935;28;20919;-48
2021/03/04 02:51:04;;;;;;;111.10;78.17;;;8.10;99.90;;;;;;5070970;28;20986;-47
2021/03/04 02:53:31;;;;;;;106.10;75.90;;;8.00;99.90;;;;;;5070633;28;20479;-47
2021/03/04 02:55:59;;;;;;;113.70;80.27;;;8.10;99.90;;;;;;5070976;28;20416;-48
2021/03/04 02:58:26;;;;;;;118.23;76.50;;;8.00;99.90;;;;;;5071123;28;20935;-48
2021/03/04 03:00:52;;;;;;;114.70;81.73;;;8.00;99.90;;;;;;5070931;28;20802;-47
2021/03/04 03:03:21;;;;;;;117.87;78.73;;;8.00;99.90;;;;;;5070714;28;20406;-48
2021/03/04 03:05:48;;;;;;;116.83;79.90;;;7.70;99.90;;;;;;5070866;28;20440;-48
2021/03/04 03:08:16;;;;;;;115.20;82.57;;;7.70;99.90;;;;;;5071627;28;20498;-48
2021/03/04 03:10:44;;;;;;;121.77;82.17;;;7.70;99.90;;;;;;5071443;28;20468;-48
2021/03/04 03:13:10;;;;;;;119.53;78.73;;;7.60;99.90;;;;;;5053270;28;21005;-47
2021/03/04 03:15:37;;;;;;;105.57;74.63;;;7.70;99.90;;;;;;5071061;28;20514;-48
2021/03/04 03:18:05;;;;;;;121.57;81.77;;;7.50;99.90;;;;;;5071290;28;20530;-48
2021/03/04 03:20:32;;;;;;;131.63;83.27;;;7.50;99.90;;;;;;5071171;28;20812;-48
2021/03/04 03:22:59;;;;;;;115.30;77.60;;;7.60;99.90;;;;;;5071065;28;20550;-47
2021/03/04 03:25:25;;;;;;;108.87;71.10;;;7.50;99.90;;;;;;5071665;28;20453;-47
2021/03/04 03:27:51;;;;;;;108.60;74.97;;;7.60;99.90;;;;;;5071297;28;20900;-47
2021/03/04 03:30:20;;;;;;;99.17;68.47;;;7.70;99.90;;;;;;5071133;28;20975;-47
2021/03/04 03:32:50;;;;;;;109.50;70.87;;;7.50;99.90;;;;;;5071110;28;20811;-47
2021/03/04 03:35:17;;;;;;;106.37;73.07;;;7.40;99.90;;;;;;5070740;28;20527;-46
2021/03/04 03:37:44;;;;;;;108.90;72.97;;;7.50;99.90;;;;;;5070305;28;20991;-48
2021/03/04 03:40:12;;;;;;;101.27;66.50;;;6.90;99.90;;;;;;5071135;28;20669;-47
2021/03/04 03:42:40;;;;;;;105.63;68.67;;;7.50;99.90;;;;;;5073369;28;20449;-47
2021/03/04 03:45:10;;;;;;;100.60;65.20;;;7.20;99.90;;;;;;5074107;28;20470;-47
2021/03/04 03:47:38;;;;;;;95.70;64.83;;;7.30;99.90;;;;;;5056105;28;20531;-47
2021/03/04 03:50:05;;;;;;;106.37;67.20;;;7.50;99.90;;;;;;5073891;28;20466;-48
2021/03/04 03:52:34;;;;;;;92.90;63.23;;;7.30;99.90;;;;;;5073514;28;20481;-47
2021/03/04 03:55:03;;;;;;;101.60;64.30;;;7.20;99.90;;;;;;5073920;28;20426;-46
2021/03/04 03:57:32;;;;;;;89.37;57.83;;;7.20;99.90;;;;;;5074098;28;20860;-47
2021/03/04 03:59:59;;;;;;;80.60;56.77;;;7.30;99.90;;;;;;5073876;28;20924;-47
2021/03/04 04:02:25;;;;;;;87.73;53.63;;;7.10;99.90;;;;;;5073526;28;20470;-47
2021/03/04 04:04:52;;;;;;;85.60;55.40;;;7.20;99.90;;;;;;5055935;28;20482;-48
2021/03/04 04:07:18;;;;;;;87.13;52.90;;;6.70;99.90;;;;;;5055703;28;20962;-48
2021/03/04 04:09:46;;;;;;;78.70;54.57;;;7.10;99.90;;;;;;5073868;28;20434;-47
2021/03/04 04:12:13;;;;;;;78.23;52.77;;;7.10;99.90;;;;;;5073809;28;20826;-46
2021/03/04 04:14:40;;;;;;;77.93;53.83;;;7.10;99.90;;;;;;5073614;28;20444;-46
2021/03/04 04:17:06;;;;;;;77.90;52.70;;;7.30;99.90;;;;;;5074725;28;20501;-48
2021/03/04 04:19:35;;;;;;;85.50;54.67;;;7.30;99.90;;;;;;5074236;28;20473;-46
2021/03/04 04:22:01;;;;;;;85.73;54.67;;;7.20;99.90;;;;;;5073236;28;20477;-46
2021/03/04 04:24:28;;;;;;;91.63;56.03;;;7.00;99.90;;;;;;5073072;28;20431;-46
2021/03/04 04:26:54;;;;;;;93.33;55.47;;;6.80;99.90;;;;;;5073340;28;20483;-48
2021/03/04 04:29:21;;;;;;;80.50;56.13;;;7.20;99.90;;;;;;5073552;28;20416;-47
2021/03/04 04:31:47;;;;;;;83.53;51.00;;;7.00;99.90;;;;;;5073734;28;20474;-47
2021/03/04 04:34:13;;;;;;;83.17;51.00;;;6.80;99.90;;;;;;5073824;28;20833;-47
2021/03/04 04:36:39;;;;;;;89.63;51.53;;;6.90;99.90;;;;;;5074592;28;20442;-47
2021/03/04 04:39:06;;;;;;;85.90;53.50;;;6.80;99.90;;;;;;5074664;28;20557;-46
2021/03/04 04:41:32;;;;;;;76.33;49.87;;;6.60;99.90;;;;;;5074441;28;20488;-50
2021/03/04 04:43:58;;;;;;;69.43;46.77;;;6.40;99.90;;;;;;5074289;28;20777;-51
2021/03/04 04:46:25;;;;;;;81.37;46.67;;;6.40;99.90;;;;;;5074151;28;20508;-51
2021/03/04 04:48:52;;;;;;;83.10;49.60;;;6.30;99.90;;;;;;5074429;28;20818;-51
2021/03/04 04:51:18;;;;;;;76.70;47.57;;;6.30;99.90;;;;;;5073120;28;20503;-51
2021/03/04 04:53:44;;;;;;;76.70;48.60;;;6.50;99.90;;;;;;5073634;28;20651;-49
2021/03/04 04:56:11;;;;;;;69.83;43.17;;;6.30;99.90;;;;;;5073563;28;20462;-50
2021/03/04 04:58:37;;;;;;;68.93;42.43;;;6.40;99.90;;;;;;5074501;28;20413;-49
2021/03/04 05:01:03;;;;;;;78.83;44.37;;;6.40;99.90;;;;;;5074342;28;20500;-50
2021/03/04 05:03:30;;;;;;;69.00;43.43;;;6.40;99.90;;;;;;5073679;28;20470;-54
2021/03/04 05:05:57;;;;;;;67.63;42.87;;;6.50;99.90;;;;;;5073661;28;20452;-50
2021/03/04 05:08:23;;;;;;;77.30;43.00;;;6.50;99.90;;;;;;5073638;28;20773;-50
2021/03/04 05:10:49;;;;;;;75.70;43.73;;;6.40;99.90;;;;;;5073607;28;20443;-50
2021/03/04 05:13:15;;;;;;;66.97;40.37;;;6.50;99.90;;;;;;5073586;28;20476;-51
2021/03/04 05:15:42;;;;;;;72.20;41.47;;;6.40;99.90;;;;;;5073570;28;20898;-51
2021/03/04 05:18:08;;;;;;;75.93;42.67;;;6.30;99.90;;;;;;5073730;28;20417;-52
2021/03/04 05:20:35;;;;;;;68.70;41.50;;;6.40;99.90;;;;;;5073741;28;20974;-51
2021/03/04 05:23:01;;;;;;;67.17;41.03;;;6.10;99.90;;;;;;5073114;28;20446;-50
2021/03/04 05:25:28;;;;;;;64.40;39.67;;;6.20;99.90;;;;;;5073447;28;20426;-51
2021/03/04 05:27:54;;;;;;;75.97;41.30;;;6.30;99.90;;;;;;5073370;28;20556;-51
2021/03/04 05:30:21;;;;;;;75.30;42.30;;;6.50;99.90;;;;;;5073416;28;20463;-52
2021/03/04 05:32:48;;;;;;;66.50;40.10;;;6.10;99.90;;;;;;5073379;28;20567;-50
2021/03/04 05:35:14;;;;;;;64.53;37.40;;;5.70;99.90;;;;;;5055342;28;20453;-50
2021/03/04 05:37:41;;;;;;;59.70;37.10;;;6.20;99.90;;;;;;5073230;28;20491;-50
2021/03/04 05:40:08;;;;;;;58.23;35.77;;;6.20;99.90;;;;;;5073467;28;20452;-49
2021/03/04 05:42:35;;;;;;;61.30;37.77;;;6.10;99.90;;;;;;5073486;28;21011;-51
2021/03/04 05:45:03;;;;;;;73.93;39.73;;;5.90;99.90;;;;;;5073593;28;20877;-50
2021/03/04 05:47:30;;;;;;;60.40;39.50;;;6.40;99.90;;;;;;5054753;28;20977;-49
2021/03/04 05:50:03;;;;;;;72.97;39.63;;;6.20;99.90;;;;;;5072803;28;20861;-50
2021/03/04 05:52:34;;;;;;;84.17;43.83;;;6.40;99.90;;;;;;5071806;28;20855;-52
2021/03/04 05:55:03;;;;;;;82.40;48.00;;;6.40;99.90;;;;;;5072799;28;20438;-50
2021/03/04 05:57:30;;;;;;;87.93;46.20;;;6.50;99.90;;;;;;5072725;28;21068;-50
2021/03/04 05:59:57;;;;;;;75.18;43.28;;;6.30;99.90;;;;;;5072484;28;20400;-49
2021/03/04 06:02:24;;;;;;;75.13;43.43;;;6.40;99.90;;;;;;5072064;28;20299;-52
2021/03/04 06:04:51;;;;;;;74.73;42.13;;;5.60;99.90;;;;;;5072744;28;20865;-51
2021/03/04 06:07:17;;;;;;;79.53;41.57;;;6.30;99.90;;;;;;5072207;28;20796;-51
2021/03/04 06:09:44;;;;;;;84.87;44.73;;;6.00;99.90;;;;;;5072627;28;20430;-52
2021/03/04 06:12:12;;;;;;;76.70;44.47;;;6.30;99.90;;;;;;5073459;28;20452;-49
2021/03/04 06:14:38;;;;;;;69.47;39.00;;;6.00;99.90;;;;;;5055098;28;20477;-51
2021/03/04 06:17:14;;;;;;;75.60;41.97;;;6.10;99.90;;;;;;5073174;28;20426;-50
2021/03/04 06:19:41;;;;;;;69.78;37.92;;;5.90;99.90;;;;;;5073130;28;20937;-50
2021/03/04 06:22:07;;;;;;;67.50;38.90;;;5.70;99.90;;;;;;5055214;28;20223;-50
2021/03/04 06:24:34;;;;;;;75.10;42.20;;;6.30;99.90;;;;;;5072889;28;20433;-50
2021/03/04 06:27:00;;;;;;;74.07;40.50;;;6.00;99.90;;;;;;5073014;28;20426;-51
2021/03/04 06:29:28;;;;;;;81.50;38.88;;;6.10;99.90;;;;;;5072404;28;20286;-51
2021/03/04 06:32:05;;;;;;;70.90;38.60;;;5.90;99.90;;;;;;5072164;28;20273;-50
2021/03/04 06:34:32;;;;;;;69.57;37.37;;;5.90;99.90;;;;;;5071867;28;20473;-50
2021/03/04 06:37:00;;;;;;;80.83;40.87;;;6.00;99.90;;;;;;5072329;28;20441;-50
2021/03/04 06:39:38;;;;;;;68.30;37.37;;;5.90;99.90;;;;;;5072123;28;20633;-51
2021/03/04 06:42:06;;;;;;;71.80;39.37;;;5.90;99.90;;;;;;5071837;28;20431;-50
2021/03/04 06:44:43;;;;;;;63.47;37.60;;;6.00;99.90;;;;;;5072227;28;20438;-50
2021/03/04 06:47:10;;;;;;;67.93;37.00;;;5.90;99.90;;;;;;5073073;28;20921;-51
2021/03/04 06:49:39;;;;;;;73.20;37.80;;;5.90;99.90;;;;;;5072970;28;20404;-52
2021/03/04 06:52:06;;;;;;;73.50;39.00;;;6.10;99.90;;;;;;5072303;28;20246;-51
2021/03/04 06:54:32;;;;;;;74.93;39.90;;;5.90;99.90;;;;;;5071380;28;20478;-52
2021/03/04 06:57:09;;;;;;;85.13;40.30;;;6.10;99.90;;;;;;5054769;28;20482;-51
2021/03/04 06:59:40;;;;;;;68.73;40.53;;;6.30;99.90;;;;;;5072958;28;20429;-51
2021/03/04 07:02:07;;;;;;;71.53;38.63;;;5.90;99.90;;;;;;5072701;28;20453;-49
2021/03/04 07:04:34;;;;;;;72.43;40.60;;;6.10;99.90;;;;;;5072758;28;20534;-50
2021/03/04 07:07:01;;;;;;;73.27;39.30;;;5.50;99.90;;;;;;5072880;28;20513;-50
2021/03/04 07:09:28;;;;;;;72.97;39.27;;;6.10;99.90;;;;;;5072610;28;20433;-51
2021/03/04 07:11:55;;;;;;;60.83;36.97;;;6.20;99.90;;;;;;5072252;28;21022;-51
2021/03/04 07:14:22;;;;;;;65.13;38.30;;;6.40;99.90;;;;;;5072119;28;20249;-50
2021/03/04 07:16:50;;;;;;;69.33;39.80;;;6.20;99.90;;;;;;5076035;28;20432;-51
2021/03/04 07:19:18;;;;;;;69.57;39.00;;;6.10;99.90;;;;;;5075624;28;20438;-51
2021/03/04 07:21:46;;;;;;;68.70;38.27;;;6.20;99.90;;;;;;5076129;28;20442;-52
2021/03/04 07:24:12;;;;;;;65.83;37.20;;;6.00;99.90;;;;;;5076328;28;20520;-51
2021/03/04 07:26:39;;;;;;;65.83;36.07;;;6.10;99.90;;;;;;5076142;28;20441;-52
2021/03/04 07:29:07;;;;;;;72.23;37.97;;;5.90;99.90;;;;;;5075944;28;20437;-52
2021/03/04 07:31:34;;;;;;;70.27;39.67;;;5.70;99.90;;;;;;5075488;28;20454;-51
2021/03/04 07:34:01;;;;;;;70.03;39.23;;;6.20;99.90;;;;;;5075533;28;20476;-51
2021/03/04 07:36:29;;;;;;;74.73;40.97;;;6.30;99.90;;;;;;5076355;28;20436;-51
2021/03/04 07:38:57;;;;;;;82.30;38.60;;;6.10;99.90;;;;;;5075391;28;20882;-51
2021/03/04 07:41:35;;;;;;;68.53;37.67;;;5.90;99.90;;;;;;5075885;28;20461;-53
2021/03/04 07:44:01;;;;;;;68.53;38.30;;;6.10;99.90;;;;;;5075816;28;20432;-50
2021/03/04 07:46:33;;;;;;;74.23;41.47;;;6.10;99.90;;;;;;5075326;28;20978;-51
2021/03/04 07:49:02;;;;;;;71.83;39.00;;;6.20;99.90;;;;;;5075103;28;20433;-51
2021/03/04 07:51:40;;;;;;;66.93;37.40;;;6.10;99.90;;;;;;5075609;28;20828;-51
2021/03/04 07:54:07;;;;;;;67.97;36.60;;;6.20;99.90;;;;;;5075462;28;20469;-51
2021/03/04 07:56:33;;;;;;;66.30;35.53;;;6.30;99.90;;;;;;5075579;28;20434;-52
2021/03/04 07:59:09;;;;;;;66.03;34.30;;;6.30;99.90;;;;;;5075005;28;20438;-51
2021/03/04 08:01:35;;;;;;;62.30;34.23;;;6.40;99.90;;;;;;5075712;28;20453;-51
2021/03/04 08:04:02;;;;;;;68.27;36.40;;;6.30;99.90;;;;;;5075361;28;20438;-51
2021/03/04 08:06:29;;;;;;;71.27;38.20;;;6.70;99.90;;;;;;5075359;28;21099;-51
2021/03/04 08:08:55;;;;;;;61.10;33.70;;;6.40;99.90;;;;;;5075050;28;20569;-52
2021/03/04 08:11:26;;;;;;;56.37;31.23;;;6.30;99.90;;;;;;5075173;28;20469;-52
2021/03/04 08:13:53;;;;;;;62.50;32.43;;;6.40;99.90;;;;;;5074918;28;20476;-50
2021/03/04 08:16:20;;;;;;;56.13;30.93;;;5.80;99.90;;;;;;5075336;28;20539;-51
2021/03/04 08:18:53;;;;;;;50.50;29.10;;;6.50;99.90;;;;;;5075256;28;20849;-51
2021/03/04 08:21:19;;;;;;;51.80;30.30;;;5.90;99.90;;;;;;5057239;28;20547;-52
2021/03/04 08:23:47;;;;;;;57.70;28.93;;;6.20;99.90;;;;;;5075085;28;20432;-51
2021/03/04 08:26:22;;;;;;;57.20;32.63;;;6.20;99.90;;;;;;5074722;28;20447;-51
2021/03/04 08:28:50;;;;;;;60.30;32.27;;;6.70;99.90;;;;;;5074911;28;20429;-50
2021/03/04 08:31:17;;;;;;;63.77;32.90;;;6.00;99.90;;;;;;5075172;28;20469;-52
2021/03/04 08:33:54;;;;;;;68.50;34.40;;;6.20;99.90;;;;;;5074324;28;20915;-52
2021/03/04 08:36:21;;;;;;;58.83;34.63;;;6.30;99.90;;;;;;5057343;28;20457;-51
2021/03/04 08:38:48;;;;;;;60.60;30.97;;;6.20;99.90;;;;;;5074859;28;20439;-49
2021/03/04 08:41:21;;;;;;;56.27;32.43;;;6.20;99.90;;;;;;5074602;28;20458;-51
2021/03/04 08:43:47;;;;;;;62.13;31.17;;;6.10;99.90;;;;;;5074862;28;20926;-50
2021/03/04 08:46:14;;;;;;;59.67;31.47;;;6.30;99.90;;;;;;5074942;28;20451;-52
2021/03/04 08:48:43;;;;;;;52.10;29.57;;;6.30;99.90;;;;;;5074358;28;20563;-51
2021/03/04 08:51:11;;;;;;;55.33;31.53;;;5.80;99.90;;;;;;5074387;28;20458;-51
2021/03/04 08:53:39;;;;;;;55.87;29.97;;;6.40;99.90;;;;;;5073703;28;20510;-51
2021/03/04 08:56:08;;;;;;;55.10;30.60;;;6.30;99.90;;;;;;5074476;28;20952;-52
2021/03/04 08:58:42;;;;;;;48.30;29.03;;;6.20;99.90;;;;;;5074635;28;20446;-51
2021/03/04 09:01:09;;;;;;;52.20;27.80;;;6.20;99.90;;;;;;5074833;28;20462;-51
2021/03/04 09:03:38;;;;;;;57.10;27.50;;;6.20;99.90;;;;;;5074137;28;20459;-51
2021/03/04 09:06:06;;;;;;;48.70;25.70;;;6.30;99.90;;;;;;5074663;28;20504;-51
2021/03/04 09:08:34;;;;;;;41.37;23.53;;;6.20;99.90;;;;;;5074120;28;20837;-49
2021/03/04 09:11:01;;;;;;;43.30;22.93;;;6.60;99.90;;;;;;5074237;28;20458;-52
2021/03/04 09:13:29;;;;;;;47.63;24.67;;;6.30;99.90;;;;;;5073611;28;20596;-49
2021/03/04 09:16:02;;;;;;;46.20;25.07;;;6.10;99.90;;;;;;5074648;28;20453;-52
2021/03/04 09:18:30;;;;;;;38.27;22.43;;;6.10;99.90;;;;;;5074594;28;20429;-51
2021/03/04 09:20:57;;;;;;;39.10;22.53;;;6.40;99.90;;;;;;5074419;28;20884;-52
2021/03/04 09:23:25;;;;;;;36.07;22.60;;;6.20;99.90;;;;;;5074228;28;20876;-51
2021/03/04 09:25:54;;;;;;;39.83;21.77;;;6.30;99.90;;;;;;5074258;28;20803;-52
2021/03/04 09:28:21;;;;;;;39.03;21.93;;;5.70;99.90;;;;;;5074985;28;20431;-51
2021/03/04 09:30:49;;;;;;;35.30;20.73;;;6.30;99.90;;;;;;5073547;28;20484;-53
2021/03/04 09:33:20;;;;;;;41.50;23.10;;;6.20;99.90;;;;;;5072521;28;20480;-51
2021/03/04 09:35:58;;;;;;;36.60;19.93;;;6.30;99.90;;;;;;5072742;28;20430;-50
2021/03/04 09:38:28;;;;;;;39.03;21.80;;;6.40;99.90;;;;;;5071868;28;20483;-52
2021/03/04 09:41:07;;;;;;;34.53;20.00;;;6.20;99.90;;;;;;5072294;28;20889;-51
2021/03/04 09:43:39;;;;;;;36.53;20.73;;;6.20;99.90;;;;;;5072197;28;20465;-51
2021/03/04 09:46:07;;;;;;;36.03;22.43;;;6.00;99.90;;;;;;5072102;28;20438;-53
2021/03/04 09:48:37;;;;;;;34.53;20.80;;;6.20;99.90;;;;;;5071827;28;20437;-51
2021/03/04 09:51:04;;;;;;;47.53;23.70;;;6.10;99.90;;;;;;5054028;28;20551;-53
2021/03/04 09:53:31;;;;;;;41.47;22.53;;;6.10;99.90;;;;;;5071235;28;20899;-52
2021/03/04 09:56:04;;;;;;;41.50;23.90;;;6.40;99.90;;;;;;5072186;28;20400;-51
2021/03/04 09:58:31;;;;;;;36.87;22.20;;;6.30;99.90;;;;;;5071221;28;20438;-52
2021/03/04 10:00:59;;;;;;;39.10;22.67;;;6.20;99.90;;;;;;5071888;28;20445;-53
2021/03/04 10:03:33;;;;;;;38.90;24.07;;;6.30;99.90;;;;;;5071170;28;20434;-52
2021/03/04 10:06:01;;;;;;;39.57;22.50;;;6.40;99.90;;;;;;5071929;28;20496;-52
2021/03/04 10:08:36;;;;;;;41.88;23.75;;;6.50;99.90;;;;;;5071827;28;20438;-51
2021/03/04 10:11:03;;;;;;;43.90;24.10;;;6.20;99.90;;;;;;5071761;28;20760;-52
2021/03/04 10:13:32;;;;;;;39.30;25.40;;;6.30;99.90;;;;;;5071275;28;20542;-52
2021/03/04 10:16:09;;;;;;;40.33;23.87;;;6.40;99.90;;;;;;5071542;28;20430;-52
2021/03/04 10:18:37;;;;;;;44.03;26.60;;;6.50;99.90;;;;;;5071341;28;20408;-52
2021/03/04 10:21:04;;;;;;;42.90;24.80;;;6.20;99.90;;;;;;5071422;28;20453;-52
2021/03/04 10:23:32;;;;;;;45.90;25.47;;;6.40;99.90;;;;;;5071211;28;20722;-52
2021/03/04 10:25:58;;;;;;;43.77;27.50;;;6.30;99.90;;;;;;5071614;28;20426;-51
2021/03/04 10:28:25;;;;;;;42.67;26.52;;;6.10;99.90;;;;;;5071426;28;20492;-53
2021/03/04 10:30:52;;;;;;;46.80;26.87;;;6.00;99.90;;;;;;5071153;28;20215;-52
2021/03/04 10:33:19;;;;;;;35.00;23.60;;;6.20;99.90;;;;;;5071043;28;20967;-52
2021/03/04 10:35:46;;;;;;;43.33;24.70;;;6.60;99.90;;;;;;5071382;28;20439;-52
2021/03/04 10:38:13;;;;;;;42.53;26.13;;;5.90;99.90;;;;;;5071534;28;20435;-53
2021/03/04 10:40:41;;;;;;;37.83;24.80;;;6.20;99.90;;;;;;5093759;22;20534;-47
2021/03/04 10:43:07;;;;;;;36.90;23.57;;;6.10;99.90;;;;;;5071055;28;20462;-46
2021/03/04 10:45:35;;;;;;;41.92;25.60;;;6.30;99.90;;;;;;5071207;28;20438;-47
2021/03/04 10:48:02;;;;;;;32.93;22.27;;;6.00;99.90;;;;;;5071423;28;20664;-47
2021/03/04 10:50:30;;;;;;;39.05;23.45;;;6.00;99.90;;;;;;5073253;28;20420;-47
2021/03/04 10:52:57;;;;;;;39.08;23.65;;;5.80;99.90;;;;;;5074925;28;20675;-47
2021/03/04 10:55:24;;;;;;;38.07;23.33;;;6.00;99.90;;;;;;5075411;28;20743;-47
2021/03/04 10:57:51;;;;;;;41.25;24.85;;;5.90;99.90;;;;;;5075153;28;21028;-47
2021/03/04 11:00:18;;;;;;;37.63;23.33;;;6.10;99.90;;;;;;5075091;28;20562;-47
2021/03/04 11:02:46;;;;;;;38.90;24.55;;;6.10;99.90;;;;;;5074204;28;20968;-47
2021/03/04 11:05:13;;;;;;;36.30;23.70;;;6.20;99.90;;;;;;5074953;28;20231;-47
2021/03/04 11:07:39;;;;;;;32.50;21.60;;;6.00;99.90;;;;;;5075271;28;20533;-47
2021/03/04 11:10:10;;;;;;;38.20;22.67;;;6.10;99.90;;;;;;5074916;28;20422;-47
2021/03/04 11:12:37;;;;;;;36.80;21.13;;;5.80;99.90;;;;;;5074312;28;20449;-46
2021/03/04 11:15:05;;;;;;;28.83;20.13;;;5.90;99.90;;;;;;5074676;28;20531;-46
2021/03/04 11:17:33;;;;;;;36.57;20.47;;;6.00;99.90;;;;;;5074412;28;20425;-46
2021/03/04 11:19:59;;;;;;;31.37;20.53;;;5.90;99.90;;;;;;5074384;28;20434;-45
2021/03/04 11:22:26;;;;;;;32.23;19.47;;;5.90;99.90;;;;;;5056327;28;20759;-46
2021/03/04 11:24:53;;;;;;;31.77;20.17;;;5.80;99.90;;;;;;5074868;28;20434;-46
2021/03/04 11:27:21;;;;;;;31.00;18.97;;;5.80;99.90;;;;;;5074971;28;20435;-46
2021/03/04 11:29:48;;;;;;;29.23;17.20;;;5.80;99.90;;;;;;5056912;28;20442;-46
2021/03/04 11:32:15;;;;;;;26.60;16.40;;;6.10;99.90;;;;;;5074532;28;20427;-47
2021/03/04 11:34:42;;;;;;;23.57;14.80;;;6.30;99.90;;;;;;5074449;28;20471;-46
2021/03/04 11:37:09;;;;;;;20.57;15.00;;;5.80;99.90;;;;;;5074064;28;20437;-46
2021/03/04 11:39:36;;;;;;;25.20;17.00;;;6.10;99.90;;;;;;5074651;28;20954;-47
2021/03/04 11:42:04;;;;;;;27.90;17.13;;;6.00;99.90;;;;;;5074186;28;20747;-47
2021/03/04 11:44:31;;;;;;;38.57;15.07;;;5.90;99.90;;;;;;5073740;28;20458;-48
2021/03/04 11:46:58;;;;;;;26.83;16.05;;;6.10;99.90;;;;;;5074732;28;20471;-46
2021/03/04 11:49:24;;;;;;;27.77;16.37;;;6.20;99.90;;;;;;5074394;28;20191;-47
2021/03/04 11:51:51;;;;;;;28.83;18.90;;;6.00;99.90;;;;;;5074109;28;20502;-47
2021/03/04 11:54:17;;;;;;;26.05;17.48;;;5.80;99.90;;;;;;5074015;28;20469;-47
2021/03/04 11:56:44;;;;;;;22.57;16.50;;;5.80;99.90;;;;;;5073812;28;20202;-47
2021/03/04 11:59:13;;;;;;;23.30;17.00;;;5.90;99.90;;;;;;5056205;28;20456;-47
2021/03/04 12:01:41;;;;;;;22.57;15.60;;;5.80;99.90;;;;;;5073214;28;20850;-46
2021/03/04 12:04:08;;;;;;;24.63;15.27;;;5.80;99.90;;;;;;5073393;28;20990;-47
2021/03/04 12:06:35;;;;;;;24.60;17.35;;;5.70;99.90;;;;;;5073714;28;20417;-47
2021/03/04 12:09:02;;;;;;;23.45;15.95;;;5.60;99.90;;;;;;5073702;28;20191;-49
2021/03/04 12:11:28;;;;;;;23.67;16.30;;;5.80;99.90;;;;;;5073644;28;20211;-46
2021/03/04 12:13:56;;;;;;;21.30;15.98;;;5.70;99.90;;;;;;5073155;28;20595;-46
2021/03/04 12:16:23;;;;;;;19.90;14.23;;;5.80;99.90;;;;;;5073668;28;20349;-48
2021/03/04 12:18:50;;;;;;;20.05;12.90;;;5.60;99.90;;;;;;5073739;28;20294;-47
2021/03/04 12:21:18;;;;;;;24.02;14.10;;;5.70;99.90;;;;;;5073055;28;20584;-47
2021/03/04 12:23:45;;;;;;;20.53;12.70;;;5.60;99.90;;;;;;5072835;28;20187;-47
2021/03/04 12:26:12;;;;;;;17.40;12.65;;;5.80;99.90;;;;;;5073420;28;20505;-46
2021/03/04 12:28:38;;;;;;;19.58;12.40;;;5.70;99.90;;;;;;5073571;28;20236;-46
2021/03/04 12:31:05;;;;;;;15.10;10.30;;;5.30;99.90;;;;;;5073214;28;20227;-47
2021/03/04 12:33:32;;;;;;;12.80;8.77;;;5.60;99.90;;;;;;5073064;28;20465;-46
2021/03/04 12:35:59;;;;;;;16.00;10.75;;;5.30;99.90;;;;;;5073575;28;20199;-47
2021/03/04 12:38:26;;;;;;;15.53;10.67;;;5.30;99.90;;;;;;5073765;28;20199;-47